Palmer Park, Maryland
Current Conditions -  °F | °C
As of 11:55 AM on Saturday 25 Oct 2014 (Local Time) from KCGS Reporting Station
Clear Clear  
Wind Chill: 66°   Ceiling: Unl
Heat Index: 66°   Visibility: 10mi
Dew Point: 41°   Wind: 6mph
Humidity: 40%   Direction: 270°W
Pressure: 29.91"   Gusts: NA
Location:  38.9183°N, 76.8721°W
Report Text: KCGS 251555Z AUTO 27005KT 10SM CLR 19/05 A2991 RMK AO1
Loading
Personal Weather Stations






























Interactive Weather Map
Tropical Storm Tracking
New forecast layout! Learn more

10-Day Weather Forecast

Advertisements
Track Severe Weather on mobile